createdAt,value
2023-05-02T00:01:20.521Z,99.90
2023-05-02T00:03:47.483Z,99.90
2023-05-02T00:06:14.468Z,99.90
2023-05-02T00:08:41.385Z,99.90
2023-05-02T00:11:08.174Z,99.90
2023-05-02T00:13:34.932Z,99.90
2023-05-02T00:16:01.953Z,99.90
2023-05-02T00:18:28.708Z,99.90
2023-05-02T00:20:56.780Z,99.90
2023-05-02T00:23:23.944Z,99.90
2023-05-02T00:25:50.873Z,99.90
2023-05-02T00:28:18.145Z,99.90
2023-05-02T00:30:46.148Z,99.90
2023-05-02T00:33:14.825Z,99.90
2023-05-02T00:35:42.056Z,99.90
2023-05-02T00:38:09.114Z,99.90
2023-05-02T00:40:47.599Z,99.90
2023-05-02T00:43:15.864Z,99.90
2023-05-02T00:45:44.306Z,99.90
2023-05-02T00:48:11.922Z,99.90
2023-05-02T00:50:40.476Z,99.90
2023-05-02T00:53:08.724Z,99.90
2023-05-02T00:55:36.049Z,99.90
2023-05-02T00:58:11.785Z,99.90
2023-05-02T01:00:57.922Z,99.90
2023-05-02T01:04:00.022Z,99.90
2023-05-02T01:06:42.370Z,99.90
2023-05-02T01:09:34.453Z,99.90
2023-05-02T01:12:05.203Z,99.90
2023-05-02T01:14:39.802Z,99.90
2023-05-02T01:17:10.190Z,99.90
2023-05-02T01:19:43.418Z,99.90
2023-05-02T01:22:13.127Z,99.90
2023-05-02T01:25:01.487Z,99.90
2023-05-02T01:27:43.518Z,99.90
2023-05-02T01:30:13.310Z,99.90
2023-05-02T01:32:43.777Z,99.90
2023-05-02T01:35:13.858Z,99.90
2023-05-02T01:37:43.006Z,99.90
2023-05-02T01:40:11.873Z,99.90
2023-05-02T01:42:40.088Z,99.90
2023-05-02T01:45:08.606Z,99.90
2023-05-02T01:47:37.620Z,99.90
2023-05-02T01:50:07.532Z,99.90
2023-05-02T01:52:35.414Z,99.90
2023-05-02T01:55:04.899Z,99.90
2023-05-02T01:57:32.456Z,99.90
2023-05-02T02:00:01.214Z,99.90
2023-05-02T02:02:29.787Z,99.90
2023-05-02T02:04:59.011Z,99.90
2023-05-02T02:07:25.886Z,99.90
2023-05-02T02:09:52.959Z,99.90
2023-05-02T02:12:29.574Z,99.90
2023-05-02T02:15:16.565Z,99.90
2023-05-02T02:17:47.938Z,99.90
2023-05-02T02:20:16.832Z,99.90
2023-05-02T02:22:45.678Z,99.90
2023-05-02T02:25:15.963Z,99.90
2023-05-02T02:27:43.458Z,99.90
2023-05-02T02:30:10.498Z,99.90
2023-05-02T02:32:38.198Z,99.90
2023-05-02T02:35:06.066Z,99.90
2023-05-02T02:37:40.910Z,99.90
2023-05-02T02:40:27.418Z,99.90
2023-05-02T02:43:26.561Z,99.90
2023-05-02T02:46:02.496Z,99.90
2023-05-02T02:49:10.224Z,99.90
2023-05-02T02:51:46.917Z,99.90
2023-05-02T02:54:40.743Z,99.90
2023-05-02T02:57:24.193Z,99.90
2023-05-02T03:00:08.629Z,99.90
2023-05-02T03:02:36.983Z,99.90
2023-05-02T03:05:05.509Z,99.90
2023-05-02T03:07:32.562Z,99.90
2023-05-02T03:10:04.822Z,99.90
2023-05-02T03:12:33.971Z,99.90
2023-05-02T03:15:40.935Z,99.90
2023-05-02T03:18:08.936Z,99.90
2023-05-02T03:20:35.751Z,99.90
2023-05-02T03:23:03.002Z,99.90
2023-05-02T03:25:30.049Z,99.90
2023-05-02T03:27:58.054Z,99.90
2023-05-02T03:30:25.294Z,99.90
2023-05-02T03:32:52.413Z,99.90
2023-05-02T03:35:19.331Z,99.90
2023-05-02T03:37:48.615Z,99.90
2023-05-02T03:40:15.905Z,99.90
2023-05-02T03:42:42.708Z,99.90
2023-05-02T03:45:21.577Z,99.90
2023-05-02T03:47:50.512Z,99.90
2023-05-02T03:50:18.457Z,99.90
2023-05-02T03:52:48.103Z,99.90
2023-05-02T03:55:18.686Z,99.90
2023-05-02T03:57:45.915Z,99.90
2023-05-02T04:00:13.854Z,99.90
2023-05-02T04:02:46.141Z,99.90
2023-05-02T04:05:16.875Z,99.90
2023-05-02T04:07:44.045Z,99.90
2023-05-02T04:10:16.382Z,99.90
2023-05-02T04:12:46.937Z,99.90
2023-05-02T04:15:15.236Z,99.90
2023-05-02T04:17:42.804Z,99.90
2023-05-02T04:20:11.468Z,99.90
2023-05-02T04:22:42.344Z,99.90
2023-05-02T04:25:09.454Z,99.90
2023-05-02T04:27:39.132Z,99.90
2023-05-02T04:30:10.562Z,99.90
2023-05-02T04:32:37.991Z,99.90
2023-05-02T04:35:06.060Z,99.90
2023-05-02T04:37:33.054Z,99.90
2023-05-02T04:40:00.845Z,99.90
2023-05-02T04:42:30.621Z,99.90
2023-05-02T04:45:09.409Z,99.90
2023-05-02T04:47:36.279Z,99.90
2023-05-02T04:50:03.553Z,99.90
2023-05-02T04:52:30.741Z,99.90
2023-05-02T04:54:57.833Z,99.90
2023-05-02T04:57:25.099Z,99.90
2023-05-02T04:59:55.774Z,99.90
2023-05-02T05:02:23.192Z,99.90
2023-05-02T05:04:50.147Z,99.90
2023-05-02T05:07:18.659Z,99.90
2023-05-02T05:09:47.804Z,99.90
2023-05-02T05:12:14.643Z,99.90
2023-05-02T05:14:41.550Z,99.90
2023-05-02T05:17:08.369Z,99.90
2023-05-02T05:19:35.317Z,99.90
2023-05-02T05:22:02.212Z,99.90
2023-05-02T05:24:28.994Z,99.90
2023-05-02T05:26:57.996Z,99.90
2023-05-02T05:29:24.896Z,99.90
2023-05-02T05:31:51.732Z,99.90
2023-05-02T05:34:20.994Z,99.90
2023-05-02T05:36:49.258Z,99.90
2023-05-02T05:39:16.741Z,99.90
2023-05-02T05:41:46.264Z,99.90
2023-05-02T05:44:13.652Z,99.90
2023-05-02T05:46:40.770Z,99.90
2023-05-02T05:49:10.242Z,99.90
2023-05-02T05:51:37.257Z,99.90
2023-05-02T05:54:04.103Z,99.90
2023-05-02T05:56:31.432Z,99.90
2023-05-02T05:59:06.455Z,99.90
2023-05-02T06:01:35.727Z,99.90
2023-05-02T06:04:04.906Z,99.90
2023-05-02T06:06:34.150Z,99.90
2023-05-02T06:09:01.107Z,99.90
2023-05-02T06:11:28.116Z,99.90
2023-05-02T06:13:56.408Z,99.90
2023-05-02T06:16:23.744Z,99.90
2023-05-02T06:18:52.680Z,99.90
2023-05-02T06:21:19.723Z,99.90
2023-05-02T06:23:46.817Z,99.90
2023-05-02T06:26:13.951Z,99.90
2023-05-02T06:28:40.982Z,99.90
2023-05-02T06:31:07.882Z,99.90
2023-05-02T06:33:35.422Z,99.90
2023-05-02T06:36:02.523Z,99.90
2023-05-02T06:38:29.381Z,99.90
2023-05-02T06:40:56.283Z,99.90
2023-05-02T06:43:23.154Z,99.90
2023-05-02T06:45:54.116Z,99.90
2023-05-02T06:48:21.587Z,99.90
2023-05-02T06:50:48.857Z,99.90
2023-05-02T06:53:16.373Z,99.90
2023-05-02T06:55:44.192Z,99.90
2023-05-02T06:58:11.216Z,99.90
2023-05-02T07:00:38.094Z,99.90
2023-05-02T07:03:04.993Z,99.90
2023-05-02T07:05:31.906Z,99.90
2023-05-02T07:07:58.726Z,99.90
2023-05-02T07:10:25.694Z,99.90
2023-05-02T07:12:52.469Z,99.90
2023-05-02T07:15:19.420Z,99.90
2023-05-02T07:17:47.715Z,99.90
2023-05-02T07:20:15.516Z,99.90
2023-05-02T07:22:42.971Z,99.90
2023-05-02T07:25:09.802Z,99.90
2023-05-02T07:27:36.591Z,99.90
2023-05-02T07:30:03.874Z,99.90
2023-05-02T07:32:31.231Z,99.90
2023-05-02T07:34:58.338Z,99.90
2023-05-02T07:37:25.159Z,99.90
2023-05-02T07:39:51.984Z,99.90
2023-05-02T07:42:18.820Z,99.90
2023-05-02T07:44:45.629Z,99.90
2023-05-02T07:47:12.522Z,99.90
2023-05-02T07:49:39.333Z,99.90
2023-05-02T07:52:06.134Z,99.90
2023-05-02T07:54:32.979Z,99.90
2023-05-02T07:57:02.836Z,99.90
2023-05-02T07:59:31.386Z,99.90
2023-05-02T08:01:58.459Z,99.90
2023-05-02T08:04:26.113Z,99.90
2023-05-02T08:06:53.127Z,99.90
2023-05-02T08:09:20.099Z,99.90
2023-05-02T08:11:47.072Z,99.90
2023-05-02T08:14:14.889Z,99.90
2023-05-02T08:16:43.497Z,99.90
2023-05-02T08:19:11.660Z,99.90
2023-05-02T08:21:38.451Z,99.90
2023-05-02T08:24:05.797Z,99.90
2023-05-02T08:26:32.630Z,99.90
2023-05-02T08:28:59.999Z,99.90
2023-05-02T08:31:26.876Z,99.90
2023-05-02T08:33:53.701Z,99.90
2023-05-02T08:36:20.543Z,99.90
2023-05-02T08:38:47.617Z,99.90
2023-05-02T08:41:17.049Z,99.90
2023-05-02T08:43:44.532Z,99.90
2023-05-02T08:46:12.160Z,99.90
2023-05-02T08:48:41.458Z,99.90
2023-05-02T08:51:12.269Z,99.90
2023-05-02T08:53:40.178Z,99.90
2023-05-02T08:56:08.839Z,99.90
2023-05-02T08:58:37.818Z,99.90
2023-05-02T09:01:13.036Z,99.90
2023-05-02T09:03:40.551Z,99.90
2023-05-02T09:06:07.347Z,99.90
2023-05-02T09:08:35.694Z,99.90
2023-05-02T09:11:03.956Z,99.90
2023-05-02T09:13:31.983Z,99.90
2023-05-02T09:16:11.376Z,99.90
2023-05-02T09:18:47.205Z,99.90
2023-05-02T09:21:21.164Z,99.90
2023-05-02T09:23:49.396Z,99.90
2023-05-02T09:26:18.713Z,99.90
2023-05-02T09:28:50.751Z,99.90
2023-05-02T09:31:43.292Z,99.90
2023-05-02T09:34:11.889Z,99.90
2023-05-02T09:36:46.564Z,99.90
2023-05-02T09:39:18.393Z,99.90
2023-05-02T09:41:47.050Z,99.90
2023-05-02T09:44:18.138Z,99.90
2023-05-02T09:46:52.850Z,99.90
2023-05-02T09:49:20.154Z,99.90
2023-05-02T09:51:48.244Z,99.90
2023-05-02T09:54:35.835Z,99.90
2023-05-02T09:57:03.659Z,99.90
2023-05-02T09:59:30.774Z,99.90
2023-05-02T10:02:02.710Z,99.90
2023-05-02T10:04:32.068Z,99.90
2023-05-02T10:06:59.404Z,99.90
2023-05-02T10:09:29.501Z,99.90
2023-05-02T10:11:56.779Z,99.90
2023-05-02T10:14:27.864Z,99.90
2023-05-02T10:17:12.645Z,99.90
2023-05-02T10:19:52.336Z,99.90
2023-05-02T10:22:22.813Z,99.90
2023-05-02T10:24:50.559Z,99.90
2023-05-02T10:27:17.600Z,99.90
2023-05-02T10:29:45.917Z,99.90
2023-05-02T10:32:14.987Z,99.90
2023-05-02T10:34:42.138Z,99.90
2023-05-02T10:37:08.988Z,99.90
2023-05-02T10:39:35.926Z,99.90
2023-05-02T10:42:04.102Z,99.90
2023-05-02T10:44:41.287Z,99.90
2023-05-02T10:47:22.405Z,99.90
2023-05-02T10:50:01.039Z,99.90
2023-05-02T10:52:35.763Z,99.90
2023-05-02T10:55:21.167Z,99.90
2023-05-02T10:57:57.485Z,99.90
2023-05-02T11:00:30.046Z,99.90
2023-05-02T11:02:57.205Z,99.90
2023-05-02T11:05:25.191Z,99.90
2023-05-02T11:08:23.199Z,99.90
2023-05-02T11:10:50.258Z,99.90
2023-05-02T11:13:37.022Z,99.90
2023-05-02T11:16:03.939Z,99.90
2023-05-02T11:19:00.873Z,99.90
2023-05-02T11:21:29.087Z,99.90
2023-05-02T11:24:33.355Z,99.90
2023-05-02T11:27:31.187Z,99.90
2023-05-02T11:30:00.043Z,99.90
2023-05-02T11:32:45.635Z,99.90
2023-05-02T11:35:23.538Z,99.90
2023-05-02T11:37:57.279Z,99.90
2023-05-02T11:40:28.123Z,99.90
2023-05-02T11:42:56.276Z,99.90
2023-05-02T11:45:45.409Z,99.90
2023-05-02T11:48:14.426Z,99.90
2023-05-02T11:50:50.679Z,99.90
2023-05-02T11:53:23.206Z,99.90
2023-05-02T11:55:58.142Z,99.90
2023-05-02T11:58:29.764Z,99.90
2023-05-02T12:00:57.308Z,99.90
2023-05-02T12:03:24.351Z,99.90
2023-05-02T12:05:51.832Z,99.90
2023-05-02T12:08:20.121Z,99.90
2023-05-02T12:10:47.107Z,99.90
2023-05-02T12:13:14.442Z,99.90
2023-05-02T12:15:41.799Z,99.90
2023-05-02T12:18:09.460Z,99.90
2023-05-02T12:20:38.462Z,99.90
2023-05-02T12:23:10.077Z,99.90
2023-05-02T12:25:41.952Z,99.90
2023-05-02T12:28:10.242Z,99.90
2023-05-02T12:30:40.229Z,99.90
2023-05-02T12:33:07.579Z,99.90
2023-05-02T12:35:35.285Z,99.90
2023-05-02T12:38:15.364Z,99.90
2023-05-02T12:40:50.569Z,99.90
2023-05-02T12:43:18.019Z,99.90
2023-05-02T12:45:44.863Z,99.90
2023-05-02T12:48:23.269Z,99.90
2023-05-02T12:50:50.880Z,99.90
2023-05-02T12:53:17.836Z,99.90
2023-05-02T12:55:45.095Z,99.90
2023-05-02T12:58:15.391Z,99.90
2023-05-02T13:00:44.764Z,99.90
2023-05-02T13:03:13.062Z,99.90
2023-05-02T13:05:39.801Z,99.90
2023-05-02T13:08:06.595Z,99.90
2023-05-02T13:10:33.436Z,99.90
2023-05-02T13:13:01.550Z,99.90
2023-05-02T13:15:28.813Z,99.90
2023-05-02T13:17:55.869Z,99.90
2023-05-02T13:20:22.771Z,99.90
2023-05-02T13:22:49.573Z,99.90
2023-05-02T13:25:16.615Z,99.90
2023-05-02T13:27:43.465Z,99.90
2023-05-02T13:30:11.832Z,99.90
2023-05-02T13:32:39.243Z,99.90
2023-05-02T13:35:06.823Z,99.90
2023-05-02T13:37:33.661Z,99.90
2023-05-02T13:40:00.875Z,99.90
2023-05-02T13:42:27.833Z,99.90
2023-05-02T13:44:54.648Z,99.90
2023-05-02T13:47:21.612Z,99.90
2023-05-02T13:49:48.493Z,99.90
2023-05-02T13:52:15.459Z,99.90
2023-05-02T13:54:42.434Z,99.90
2023-05-02T13:57:09.423Z,99.60
2023-05-02T13:59:36.185Z,99.90
2023-05-02T14:02:03.098Z,99.90
2023-05-02T14:04:29.984Z,99.90
2023-05-02T14:06:56.822Z,99.90
2023-05-02T14:09:23.877Z,99.90
2023-05-02T14:11:50.774Z,99.90
2023-05-02T14:14:17.706Z,99.90
2023-05-02T14:16:44.548Z,99.90
2023-05-02T14:19:11.439Z,99.90
2023-05-02T14:21:38.699Z,99.90
2023-05-02T14:24:06.415Z,99.50
2023-05-02T14:26:33.260Z,99.90
2023-05-02T14:29:00.688Z,99.90
2023-05-02T14:31:27.735Z,99.90
2023-05-02T14:33:54.561Z,96.80
2023-05-02T14:36:21.446Z,96.00
2023-05-02T14:38:48.386Z,95.20
2023-05-02T14:41:15.191Z,96.50
2023-05-02T14:43:41.964Z,97.70
2023-05-02T14:46:08.824Z,97.20
2023-05-02T14:48:36.942Z,97.60
2023-05-02T14:51:04.830Z,95.60
2023-05-02T14:53:31.704Z,96.60
2023-05-02T14:55:58.537Z,96.90
2023-05-02T14:58:25.388Z,96.60
2023-05-02T15:00:52.401Z,95.40
2023-05-02T15:03:19.489Z,97.40
2023-05-02T15:05:46.499Z,97.60
2023-05-02T15:08:13.303Z,99.10
2023-05-02T15:10:40.327Z,99.50
2023-05-02T15:13:08.544Z,99.00
2023-05-02T15:15:35.537Z,96.10
2023-05-02T15:18:02.578Z,98.80
2023-05-02T15:20:29.450Z,97.50
2023-05-02T15:22:56.274Z,98.10
2023-05-02T15:25:23.127Z,98.50
2023-05-02T15:27:50.416Z,97.80
2023-05-02T15:30:18.089Z,98.70
2023-05-02T15:32:45.099Z,95.90
2023-05-02T15:35:12.404Z,95.90
2023-05-02T15:37:39.118Z,96.10
2023-05-02T15:40:08.195Z,98.40
2023-05-02T15:42:36.987Z,96.50
2023-05-02T15:45:04.430Z,96.90
2023-05-02T15:47:31.381Z,97.00
2023-05-02T15:49:58.704Z,96.60
2023-05-02T15:52:25.590Z,98.10
2023-05-02T15:54:52.421Z,98.50
2023-05-02T15:57:19.751Z,96.40
2023-05-02T15:59:46.631Z,97.80
2023-05-02T16:02:13.684Z,97.40
2023-05-02T16:04:40.955Z,97.70
2023-05-02T16:07:08.001Z,99.20
2023-05-02T16:09:34.871Z,97.20
2023-05-02T16:12:02.352Z,97.40
2023-05-02T16:14:29.417Z,97.20
2023-05-02T16:16:56.567Z,96.90
2023-05-02T16:19:23.406Z,97.90
2023-05-02T16:21:50.770Z,96.00
2023-05-02T16:24:17.556Z,95.20
2023-05-02T16:26:45.384Z,97.30
2023-05-02T16:29:12.263Z,96.30
2023-05-02T16:31:39.110Z,96.90
2023-05-02T16:34:05.917Z,98.10
2023-05-02T16:36:33.286Z,96.50
2023-05-02T16:39:00.455Z,94.90
2023-05-02T16:41:27.318Z,97.30
2023-05-02T16:43:54.199Z,97.70
2023-05-02T16:46:21.115Z,97.00
2023-05-02T16:48:48.372Z,96.70
2023-05-02T16:51:15.407Z,97.40
2023-05-02T16:53:43.560Z,97.00
2023-05-02T16:56:10.397Z,96.90
2023-05-02T16:58:37.196Z,97.30
2023-05-02T17:01:05.220Z,97.60
2023-05-02T17:03:32.154Z,96.60
2023-05-02T17:06:01.170Z,96.10
2023-05-02T17:08:28.232Z,97.90
2023-05-02T17:10:55.205Z,98.50
2023-05-02T17:13:22.184Z,96.00
2023-05-02T17:15:49.159Z,98.00
2023-05-02T17:18:16.435Z,97.30
2023-05-02T17:20:43.428Z,98.00
2023-05-02T17:23:10.422Z,99.90
2023-05-02T17:25:38.225Z,98.80
2023-05-02T17:28:05.080Z,97.30
2023-05-02T17:30:32.097Z,97.10
2023-05-02T17:32:58.904Z,98.40
2023-05-02T17:35:25.888Z,98.00
2023-05-02T17:37:52.664Z,99.10
2023-05-02T17:40:19.572Z,98.20
2023-05-02T17:42:46.623Z,99.00
2023-05-02T17:45:13.635Z,98.30
2023-05-02T17:47:40.643Z,98.60
2023-05-02T17:50:08.603Z,99.90
2023-05-02T17:52:35.957Z,99.90
2023-05-02T17:55:04.026Z,99.90
2023-05-02T17:57:31.035Z,99.10
2023-05-02T17:59:59.541Z,99.60
2023-05-02T18:02:27.429Z,99.90
2023-05-02T18:04:54.779Z,99.60
2023-05-02T18:07:24.318Z,99.40
2023-05-02T18:09:51.806Z,99.70
2023-05-02T18:12:18.773Z,99.90
2023-05-02T18:14:45.670Z,99.90
2023-05-02T18:17:12.744Z,99.90
2023-05-02T18:19:39.644Z,99.90
2023-05-02T18:22:07.165Z,99.90
2023-05-02T18:24:34.046Z,99.90
2023-05-02T18:27:00.956Z,99.90
2023-05-02T18:29:27.767Z,99.90
2023-05-02T18:31:55.457Z,99.90
2023-05-02T18:34:22.838Z,99.90
2023-05-02T18:36:49.651Z,99.90
2023-05-02T18:39:16.503Z,99.90
2023-05-02T18:41:43.352Z,99.90
2023-05-02T18:44:11.421Z,99.90
2023-05-02T18:46:38.417Z,99.90
2023-05-02T18:49:05.325Z,99.90
2023-05-02T18:51:32.160Z,99.90
2023-05-02T18:53:58.999Z,99.90
2023-05-02T18:56:25.971Z,99.90
2023-05-02T18:58:56.461Z,99.90
2023-05-02T19:01:24.414Z,99.90
2023-05-02T19:03:52.920Z,99.90
2023-05-02T19:06:20.436Z,99.90
2023-05-02T19:08:47.775Z,99.90
2023-05-02T19:11:14.840Z,99.90
2023-05-02T19:13:41.662Z,99.90
2023-05-02T19:16:12.536Z,99.90
2023-05-02T19:18:40.335Z,99.90
2023-05-02T19:21:13.854Z,99.90
2023-05-02T19:23:41.730Z,99.90
2023-05-02T19:26:13.232Z,99.90
2023-05-02T19:28:40.482Z,99.90
2023-05-02T19:31:11.823Z,99.90
2023-05-02T19:33:39.772Z,99.90
2023-05-02T19:36:07.413Z,99.90
2023-05-02T19:38:34.882Z,99.90
2023-05-02T19:41:02.024Z,99.90
2023-05-02T19:43:28.785Z,99.90
2023-05-02T19:45:56.682Z,99.90
2023-05-02T19:48:23.632Z,99.90
2023-05-02T19:50:50.474Z,99.90
2023-05-02T19:53:17.292Z,99.90
2023-05-02T19:55:44.430Z,99.90
2023-05-02T19:58:11.445Z,99.90
2023-05-02T20:00:38.395Z,99.90
2023-05-02T20:03:05.438Z,99.90
2023-05-02T20:05:32.358Z,99.90
2023-05-02T20:07:59.517Z,99.90
2023-05-02T20:10:26.718Z,99.90
2023-05-02T20:12:53.508Z,99.90
2023-05-02T20:15:21.541Z,99.90
2023-05-02T20:17:48.353Z,99.90
2023-05-02T20:20:15.576Z,99.90
2023-05-02T20:22:42.447Z,99.90
2023-05-02T20:25:11.754Z,99.90
2023-05-02T20:27:38.782Z,99.90
2023-05-02T20:30:07.531Z,99.90
2023-05-02T20:32:34.769Z,99.90
2023-05-02T20:35:01.686Z,99.90
2023-05-02T20:37:29.378Z,99.90
2023-05-02T20:39:56.424Z,99.90
2023-05-02T20:42:25.266Z,99.90
2023-05-02T20:44:59.622Z,99.90
2023-05-02T20:47:27.424Z,99.90
2023-05-02T20:49:54.778Z,99.90
2023-05-02T20:52:21.923Z,99.90
2023-05-02T20:54:49.425Z,99.90
2023-05-02T20:57:16.380Z,99.90
2023-05-02T20:59:43.540Z,99.90
2023-05-02T21:02:11.134Z,99.90
2023-05-02T21:04:38.021Z,99.90
2023-05-02T21:07:04.975Z,99.90
2023-05-02T21:09:31.772Z,99.90
2023-05-02T21:11:58.540Z,99.90
2023-05-02T21:14:26.074Z,99.90
2023-05-02T21:16:52.965Z,99.90
2023-05-02T21:19:22.857Z,99.90
2023-05-02T21:21:49.616Z,99.90
2023-05-02T21:24:16.463Z,99.90
2023-05-02T21:26:43.280Z,99.90
2023-05-02T21:29:14.839Z,99.90
2023-05-02T21:31:41.672Z,99.90
2023-05-02T21:34:08.508Z,99.90
2023-05-02T21:36:35.625Z,99.90
2023-05-02T21:39:02.448Z,99.90
2023-05-02T21:41:29.282Z,99.90
2023-05-02T21:43:56.101Z,99.90
2023-05-02T21:46:23.173Z,99.90
2023-05-02T21:48:50.103Z,99.90
2023-05-02T21:51:16.987Z,99.90
2023-05-02T21:53:43.790Z,99.90
2023-05-02T21:56:10.908Z,99.90
2023-05-02T21:58:37.717Z,99.90
2023-05-02T22:01:04.651Z,99.90
2023-05-02T22:03:33.656Z,99.90
2023-05-02T22:06:05.658Z,99.90
2023-05-02T22:08:32.646Z,99.90
2023-05-02T22:10:59.561Z,99.90
2023-05-02T22:13:26.784Z,99.90
2023-05-02T22:15:53.596Z,99.90
2023-05-02T22:18:20.470Z,99.90
2023-05-02T22:20:48.053Z,99.90
2023-05-02T22:23:15.007Z,99.90
2023-05-02T22:25:43.311Z,99.90
2023-05-02T22:28:13.910Z,99.90
2023-05-02T22:30:44.780Z,99.90
2023-05-02T22:33:12.208Z,99.90
2023-05-02T22:35:39.069Z,99.90
2023-05-02T22:38:08.937Z,99.90
2023-05-02T22:40:35.912Z,99.90
2023-05-02T22:43:02.698Z,99.90
2023-05-02T22:45:29.468Z,99.90
2023-05-02T22:47:56.374Z,99.90
2023-05-02T22:50:23.373Z,99.90
2023-05-02T22:52:51.035Z,99.90
2023-05-02T22:55:17.951Z,99.90
2023-05-02T22:57:44.770Z,99.90
2023-05-02T23:00:12.417Z,99.90
2023-05-02T23:02:39.536Z,99.90
2023-05-02T23:05:06.932Z,99.90
2023-05-02T23:07:33.999Z,99.90
2023-05-02T23:10:01.539Z,99.90
2023-05-02T23:12:28.792Z,99.90
2023-05-02T23:14:55.762Z,99.90
2023-05-02T23:17:23.207Z,99.90
2023-05-02T23:19:50.401Z,99.90
2023-05-02T23:22:17.412Z,99.90
2023-05-02T23:24:47.280Z,99.90
2023-05-02T23:27:14.087Z,99.90
2023-05-02T23:29:40.863Z,99.90
2023-05-02T23:32:08.195Z,99.90
2023-05-02T23:34:38.852Z,99.90
2023-05-02T23:37:06.905Z,99.90
2023-05-02T23:39:34.130Z,99.90
2023-05-02T23:42:03.495Z,99.90
2023-05-02T23:44:31.172Z,99.90
2023-05-02T23:47:01.088Z,99.90
2023-05-02T23:49:27.948Z,99.90
2023-05-02T23:51:54.787Z,99.90
2023-05-02T23:54:21.590Z,99.90
2023-05-02T23:56:48.420Z,99.90
2023-05-02T23:59:15.397Z,99.90
